Terminal Aerodrome Forecast
Issued by NWS

Home | Current Version | Previous Version | Text Only | Print | Product List | Glossary On
Versions: 1 2 3 4 5 6 7 8 9 10 11 12 13 14 15 16 17 18 19 20 21 22 23 24 25
000
FTUS46 KLOX 311733
TAFLAX
TAF
KLAX 311733Z 3118/0124 10007KT P6SM BKN019
     FM311830 14006KT P6SM SCT020
     FM312000 26012KT P6SM SKC
     FM010300 VRB03KT P6SM SKC
     FM010600 VRB03KT P6SM OVC015
     FM011200 VRB03KT P6SM OVC020
     FM011800 25006KT P6SM SCT023
     FM012000 25012KT P6SM SKC=

USA.gov is the U.S. government's official web portal to all federal, state and local government web resources and services.